createdAt,value
2023-05-16T00:00:06.985Z,5.20
2023-05-16T00:03:42.643Z,4.50
2023-05-16T00:07:19.409Z,3.60
2023-05-16T00:10:56.958Z,4.30
2023-05-16T00:14:36.470Z,3.90
2023-05-16T00:18:15.752Z,2.80
2023-05-16T00:21:49.524Z,2.20
2023-05-16T00:25:27.815Z,2.60
2023-05-16T00:29:04.900Z,3.40
2023-05-16T00:32:42.701Z,3.90
2023-05-16T00:36:23.553Z,3.10
2023-05-16T00:39:57.853Z,4.50
2023-05-16T00:43:35.936Z,4.60
2023-05-16T00:47:13.218Z,4.90
2023-05-16T00:50:52.511Z,5.30
2023-05-16T00:54:30.405Z,5.80
2023-05-16T00:58:06.898Z,6.20
2023-05-16T01:01:47.883Z,6.30
2023-05-16T01:05:22.028Z,5.20
2023-05-16T01:08:59.938Z,2.60
2023-05-16T01:12:57.213Z,2.80
2023-05-16T01:16:27.432Z,2.90
2023-05-16T01:20:15.796Z,3.40
2023-05-16T01:24:00.721Z,2.90
2023-05-16T01:27:09.212Z,2.70
2023-05-16T01:30:45.341Z,3.60
2023-05-16T01:34:22.935Z,3.70
2023-05-16T01:38:06.656Z,3.30
2023-05-16T01:42:04.802Z,3.50
2023-05-16T01:45:24.845Z,3.10
2023-05-16T01:49:17.258Z,3.50
2023-05-16T01:52:39.012Z,3.20
2023-05-16T01:56:29.362Z,3.20
2023-05-16T01:59:47.350Z,3.20
2023-05-16T02:03:24.704Z,3.20
2023-05-16T02:07:02.200Z,3.00
2023-05-16T02:10:41.499Z,3.60
2023-05-16T02:14:17.234Z,4.50
2023-05-16T02:17:55.982Z,4.60
2023-05-16T02:21:32.526Z,4.50
2023-05-16T02:25:11.295Z,5.10
2023-05-16T02:28:49.977Z,6.00
2023-05-16T02:32:26.470Z,7.30
2023-05-16T02:36:03.954Z,7.80
2023-05-16T02:39:41.634Z,7.30
2023-05-16T02:43:18.880Z,7.20
2023-05-16T02:46:56.938Z,7.40
2023-05-16T02:50:34.653Z,6.90
2023-05-16T02:54:12.042Z,6.50
2023-05-16T02:57:50.843Z,8.20
2023-05-16T03:01:27.342Z,8.70
2023-05-16T03:05:06.569Z,8.00
2023-05-16T03:08:42.835Z,6.50
2023-05-16T03:12:20.632Z,5.60
2023-05-16T03:15:57.900Z,5.20
2023-05-16T03:19:35.702Z,5.10
2023-05-16T03:23:13.437Z,4.60
2023-05-16T03:26:51.378Z,3.90
2023-05-16T03:30:28.485Z,4.10
2023-05-16T03:34:06.986Z,4.30
2023-05-16T03:37:43.869Z,4.40
2023-05-16T03:41:22.380Z,5.20
2023-05-16T03:44:59.234Z,5.00
2023-05-16T03:48:37.080Z,5.30
2023-05-16T03:52:14.658Z,6.00
2023-05-16T03:55:52.280Z,5.30
2023-05-16T03:59:29.927Z,5.20
2023-05-16T04:03:08.607Z,3.30
2023-05-16T04:06:47.438Z,4.00
2023-05-16T04:10:23.440Z,3.50
2023-05-16T04:14:02.033Z,3.20
2023-05-16T04:17:38.916Z,2.60
2023-05-16T04:21:16.365Z,2.20
2023-05-16T04:24:54.035Z,2.40
2023-05-16T04:28:31.397Z,2.50
2023-05-16T04:32:09.842Z,2.80
2023-05-16T04:35:47.213Z,3.20
2023-05-16T04:39:24.708Z,2.90
2023-05-16T04:43:02.201Z,2.80
2023-05-16T04:46:42.175Z,3.00
2023-05-16T04:50:18.327Z,3.50
2023-05-16T04:53:56.278Z,2.20
2023-05-16T04:57:32.921Z,2.80
2023-05-16T05:01:10.937Z,2.90
2023-05-16T05:04:48.440Z,2.00
2023-05-16T05:08:26.258Z,1.70
2023-05-16T05:12:04.165Z,2.30
2023-05-16T05:15:41.679Z,2.70
2023-05-16T05:19:19.511Z,2.80
2023-05-16T05:22:56.958Z,2.10
2023-05-16T05:26:34.389Z,2.00
2023-05-16T05:30:12.260Z,2.10
2023-05-16T05:33:49.525Z,2.40
2023-05-16T05:37:27.393Z,1.80
2023-05-16T05:41:06.737Z,1.90
2023-05-16T05:44:42.985Z,2.10
2023-05-16T05:48:20.171Z,2.70
2023-05-16T05:51:58.310Z,3.20
2023-05-16T05:55:36.149Z,3.20
2023-05-16T05:59:13.962Z,2.60
2023-05-16T06:02:52.159Z,3.50
2023-05-16T06:06:29.498Z,2.60
2023-05-16T06:10:08.722Z,3.20
2023-05-16T06:13:44.268Z,2.50
2023-05-16T06:17:21.900Z,2.00
2023-05-16T06:20:59.738Z,2.80
2023-05-16T06:24:37.051Z,2.70
2023-05-16T06:28:14.758Z,2.20
2023-05-16T06:31:52.382Z,2.80
2023-05-16T06:35:30.726Z,2.50
2023-05-16T06:39:08.853Z,3.20
2023-05-16T06:42:45.852Z,1.90
2023-05-16T06:46:23.303Z,2.20
2023-05-16T06:50:01.157Z,2.10
2023-05-16T06:53:38.436Z,1.50
2023-05-16T06:57:35.092Z,1.90
2023-05-16T07:00:53.857Z,2.40
2023-05-16T07:04:40.519Z,2.90
2023-05-16T07:08:12.835Z,4.20
2023-05-16T07:11:47.408Z,4.00
2023-05-16T07:15:24.730Z,4.10
2023-05-16T07:19:02.425Z,4.30
2023-05-16T07:22:41.062Z,4.40
2023-05-16T07:26:19.220Z,4.00
2023-05-16T07:29:55.292Z,4.00
2023-05-16T07:33:35.871Z,4.20
2023-05-16T07:37:13.410Z,3.40
2023-05-16T07:40:48.341Z,2.70
2023-05-16T07:44:26.208Z,3.80
2023-05-16T07:48:03.710Z,4.10
2023-05-16T07:51:42.282Z,5.90
2023-05-16T07:55:18.897Z,5.90
2023-05-16T07:58:56.831Z,5.90
2023-05-16T08:02:34.777Z,6.40
2023-05-16T08:06:12.750Z,6.90
2023-05-16T08:09:49.566Z,7.20
2023-05-16T08:13:27.379Z,6.70
2023-05-16T08:17:05.347Z,7.30
2023-05-16T08:20:43.689Z,7.40
2023-05-16T08:24:20.756Z,7.00
2023-05-16T08:28:02.319Z,6.50
2023-05-16T08:31:36.565Z,6.70
2023-05-16T08:35:13.817Z,6.40
2023-05-16T08:38:51.217Z,7.70
2023-05-16T08:42:47.900Z,6.80
2023-05-16T08:46:27.985Z,6.50
2023-05-16T08:49:47.711Z,7.50
2023-05-16T08:53:27.948Z,7.70
2023-05-16T08:57:02.738Z,7.60
2023-05-16T09:00:37.384Z,7.70
2023-05-16T09:04:16.515Z,7.60
2023-05-16T09:07:52.855Z,7.00
2023-05-16T09:11:30.563Z,7.20
2023-05-16T09:15:10.796Z,6.90
2023-05-16T09:18:57.398Z,6.80
2023-05-16T09:22:24.036Z,7.40
2023-05-16T09:26:01.075Z,7.00
2023-05-16T09:29:42.140Z,7.40
2023-05-16T09:33:16.737Z,5.90
2023-05-16T09:36:56.968Z,5.70
2023-05-16T09:40:32.184Z,5.70
2023-05-16T09:44:09.190Z,5.30
2023-05-16T09:48:07.867Z,5.50
2023-05-16T09:51:24.370Z,5.30
2023-05-16T09:55:05.202Z,5.20
2023-05-16T09:58:41.956Z,5.40
2023-05-16T10:02:18.270Z,5.20
2023-05-16T10:05:56.346Z,5.10
2023-05-16T10:09:34.741Z,5.30
2023-05-16T10:13:12.591Z,4.20
2023-05-16T10:16:50.120Z,5.40
2023-05-16T10:20:27.118Z,5.00
2023-05-16T10:24:06.987Z,4.70
2023-05-16T10:27:42.926Z,5.00
2023-05-16T10:31:38.868Z,5.60
2023-05-16T10:34:57.307Z,4.80
2023-05-16T10:38:35.744Z,4.40
2023-05-16T10:42:14.427Z,4.90
2023-05-16T10:45:56.346Z,4.60
2023-05-16T10:49:28.080Z,4.30
2023-05-16T10:53:26.811Z,4.60
2023-05-16T10:56:43.615Z,4.50
2023-05-16T11:00:23.628Z,4.40
2023-05-16T11:04:02.533Z,4.80
2023-05-16T11:07:39.604Z,4.40
2023-05-16T11:11:41.374Z,4.30
2023-05-16T11:14:52.068Z,4.60
2023-05-16T11:18:33.145Z,4.30
2023-05-16T11:22:24.792Z,5.50
2023-05-16T11:25:46.296Z,5.00
2023-05-16T11:29:22.405Z,5.90
2023-05-16T11:32:59.523Z,5.00
2023-05-16T11:36:38.778Z,5.40
2023-05-16T11:40:17.368Z,6.20
2023-05-16T11:43:53.210Z,7.00
2023-05-16T11:47:32.206Z,6.80
2023-05-16T11:51:09.354Z,7.60
2023-05-16T11:54:46.009Z,7.30
2023-05-16T11:58:23.675Z,7.10
2023-05-16T12:02:05.740Z,8.00
2023-05-16T12:05:40.716Z,7.80
2023-05-16T12:09:18.331Z,9.00
2023-05-16T12:12:55.313Z,9.60
2023-05-16T12:16:33.159Z,9.40
2023-05-16T12:20:14.803Z,9.00
2023-05-16T12:23:47.270Z,8.80
2023-05-16T12:27:28.179Z,8.70
2023-05-16T12:31:03.387Z,9.30
2023-05-16T12:34:40.320Z,9.00
2023-05-16T12:38:20.483Z,9.30
2023-05-16T12:41:55.880Z,10.00
2023-05-16T12:45:35.432Z,10.20
2023-05-16T12:49:11.422Z,8.50
2023-05-16T12:52:53.875Z,8.10
2023-05-16T12:56:26.711Z,8.40
2023-05-16T13:00:04.247Z,7.10
2023-05-16T13:03:41.545Z,6.70
2023-05-16T13:07:19.304Z,5.50
2023-05-16T13:10:57.335Z,5.20
2023-05-16T13:14:34.346Z,6.10
2023-05-16T13:18:12.553Z,6.20
2023-05-16T13:21:50.042Z,6.60
2023-05-16T13:25:28.001Z,6.00
2023-05-16T13:29:05.796Z,5.40
2023-05-16T13:32:43.204Z,6.50
2023-05-16T13:36:20.670Z,5.80
2023-05-16T13:39:58.528Z,4.60
2023-05-16T13:43:36.415Z,4.80
2023-05-16T13:47:32.777Z,5.50
2023-05-16T13:50:53.620Z,5.30
2023-05-16T13:54:29.049Z,4.70
2023-05-16T13:58:06.935Z,4.60
2023-05-16T14:01:44.532Z,4.70
2023-05-16T14:05:22.799Z,4.90
2023-05-16T14:08:59.660Z,4.10
2023-05-16T14:12:38.140Z,4.00
2023-05-16T14:16:15.323Z,3.70
2023-05-16T14:19:53.673Z,4.20
2023-05-16T14:23:30.693Z,3.70
2023-05-16T14:27:07.998Z,4.20
2023-05-16T14:30:47.339Z,4.00
2023-05-16T14:34:23.603Z,4.60
2023-05-16T14:38:01.319Z,5.00
2023-05-16T14:41:38.835Z,5.00
2023-05-16T14:45:17.357Z,4.80
2023-05-16T14:48:53.980Z,5.10
2023-05-16T14:52:32.242Z,5.60
2023-05-16T14:56:09.580Z,6.00
2023-05-16T14:59:48.796Z,5.70
2023-05-16T15:03:25.321Z,5.30
2023-05-16T15:07:02.282Z,5.40
2023-05-16T15:10:40.269Z,5.30
2023-05-16T15:14:18.256Z,4.70
2023-05-16T15:17:56.112Z,6.30
2023-05-16T15:21:33.934Z,5.30
2023-05-16T15:25:11.298Z,6.30
2023-05-16T15:28:49.039Z,5.60
2023-05-16T15:32:26.640Z,4.70
2023-05-16T15:36:05.256Z,4.60
2023-05-16T15:39:42.627Z,4.80
2023-05-16T15:43:19.445Z,5.10
2023-05-16T15:46:57.496Z,4.40
2023-05-16T15:50:54.039Z,4.80
2023-05-16T15:54:12.516Z,4.90
2023-05-16T15:57:50.353Z,4.30
2023-05-16T16:01:27.853Z,4.80
2023-05-16T16:05:05.923Z,4.30
2023-05-16T16:08:43.469Z,3.60
2023-05-16T16:12:21.042Z,5.50
2023-05-16T16:15:58.647Z,3.60
2023-05-16T16:19:36.489Z,4.20
2023-05-16T16:23:14.009Z,3.70
2023-05-16T16:26:51.657Z,3.50
2023-05-16T16:30:28.959Z,4.40
2023-05-16T16:34:07.623Z,4.30
2023-05-16T16:37:54.796Z,4.30
2023-05-16T16:41:22.382Z,3.60
2023-05-16T16:45:00.262Z,4.70
2023-05-16T16:48:38.141Z,3.80
2023-05-16T16:52:15.893Z,3.60
2023-05-16T16:55:52.841Z,4.20
2023-05-16T16:59:31.077Z,3.60
2023-05-16T17:03:08.562Z,3.70
2023-05-16T17:06:48.405Z,3.40
2023-05-16T17:10:23.669Z,3.30
2023-05-16T17:14:01.402Z,3.00
2023-05-16T17:17:38.747Z,2.60
2023-05-16T17:21:16.697Z,3.40
2023-05-16T17:24:54.397Z,2.60
2023-05-16T17:28:32.623Z,2.50
2023-05-16T17:32:09.395Z,2.80
2023-05-16T17:35:47.791Z,2.20
2023-05-16T17:39:25.135Z,2.60
2023-05-16T17:43:02.915Z,2.80
2023-05-16T17:46:42.529Z,3.00
2023-05-16T17:50:20.024Z,3.00
2023-05-16T17:53:55.623Z,3.60
2023-05-16T17:57:34.512Z,2.40
2023-05-16T18:01:11.625Z,2.60
2023-05-16T18:04:49.015Z,1.50
2023-05-16T18:08:26.456Z,1.90
2023-05-16T18:12:04.146Z,2.30
2023-05-16T18:15:41.641Z,2.30
2023-05-16T18:19:20.196Z,1.50
2023-05-16T18:22:57.827Z,2.40
2023-05-16T18:26:34.996Z,2.00
2023-05-16T18:30:13.688Z,1.50
2023-05-16T18:33:50.363Z,2.00
2023-05-16T18:37:27.831Z,1.70
2023-05-16T18:41:06.338Z,1.60
2023-05-16T18:44:43.640Z,1.50
2023-05-16T18:48:20.922Z,1.00
2023-05-16T18:51:58.461Z,1.70
2023-05-16T18:55:36.737Z,1.50
2023-05-16T18:59:13.908Z,1.80
2023-05-16T19:02:52.330Z,1.60
2023-05-16T19:06:29.507Z,1.70
2023-05-16T19:10:12.562Z,1.40
2023-05-16T19:13:45.734Z,1.40
2023-05-16T19:17:22.235Z,1.10
2023-05-16T19:20:59.674Z,1.30
2023-05-16T19:24:37.396Z,1.20
2023-05-16T19:28:16.701Z,1.60
2023-05-16T19:31:53.101Z,1.20
2023-05-16T19:35:30.676Z,1.80
2023-05-16T19:39:08.322Z,1.50
2023-05-16T19:42:46.033Z,1.50
2023-05-16T19:46:23.868Z,1.50
2023-05-16T19:50:02.553Z,1.60
2023-05-16T19:53:38.755Z,1.50
2023-05-16T19:57:16.620Z,1.50
2023-05-16T20:00:54.899Z,1.90
2023-05-16T20:04:32.184Z,2.00
2023-05-16T20:08:09.957Z,1.80
2023-05-16T20:11:47.889Z,2.10
2023-05-16T20:15:25.905Z,1.20
2023-05-16T20:19:02.575Z,1.90
2023-05-16T20:22:41.772Z,1.60
2023-05-16T20:26:17.929Z,1.90
2023-05-16T20:29:57.293Z,1.90
2023-05-16T20:33:33.357Z,2.00
2023-05-16T20:37:10.830Z,2.00
2023-05-16T20:40:48.317Z,1.80
2023-05-16T20:44:26.232Z,1.90
2023-05-16T20:48:04.301Z,2.00
2023-05-16T20:51:41.553Z,1.80
2023-05-16T20:55:18.965Z,2.10
2023-05-16T20:58:57.020Z,2.10
2023-05-16T21:02:34.793Z,2.40
2023-05-16T21:06:12.230Z,2.30
2023-05-16T21:09:49.958Z,2.50
2023-05-16T21:13:29.212Z,1.80
2023-05-16T21:17:04.986Z,2.50
2023-05-16T21:20:43.232Z,2.60
2023-05-16T21:24:21.319Z,1.90
2023-05-16T21:27:58.441Z,2.60
2023-05-16T21:31:35.773Z,2.80
2023-05-16T21:35:13.761Z,1.80
2023-05-16T21:38:51.491Z,2.40
2023-05-16T21:42:29.016Z,2.00
2023-05-16T21:46:07.197Z,2.30
2023-05-16T21:49:44.587Z,2.80
2023-05-16T21:53:24.210Z,2.40
2023-05-16T21:56:59.691Z,2.60
2023-05-16T22:01:13.183Z,2.00
2023-05-16T22:04:15.440Z,2.20
2023-05-16T22:07:54.147Z,3.00
2023-05-16T22:11:30.919Z,2.40
2023-05-16T22:15:10.928Z,3.40
2023-05-16T22:18:45.645Z,2.60
2023-05-16T22:22:23.704Z,3.20
2023-05-16T22:26:21.151Z,2.40
2023-05-16T22:29:38.808Z,2.10
2023-05-16T22:33:16.744Z,2.80
2023-05-16T22:36:54.293Z,2.10
2023-05-16T22:40:32.339Z,2.30
2023-05-16T22:44:09.581Z,1.80
2023-05-16T22:47:47.036Z,2.10
2023-05-16T22:51:24.930Z,2.10
2023-05-16T22:55:02.718Z,2.40
2023-05-16T22:58:39.999Z,2.10
2023-05-16T23:02:18.119Z,2.10
2023-05-16T23:05:56.010Z,1.70
2023-05-16T23:09:33.220Z,1.50
2023-05-16T23:13:10.517Z,1.90
2023-05-16T23:16:48.612Z,1.90
2023-05-16T23:20:26.190Z,2.60
2023-05-16T23:24:04.001Z,2.10
2023-05-16T23:27:41.795Z,1.70
2023-05-16T23:31:19.483Z,2.70
2023-05-16T23:34:57.243Z,2.10
2023-05-16T23:38:34.632Z,3.00
2023-05-16T23:42:12.504Z,2.00
2023-05-16T23:45:50.067Z,1.50
2023-05-16T23:49:27.622Z,2.20
2023-05-16T23:53:05.090Z,1.50
2023-05-16T23:56:43.148Z,2.20
